sensor_id;sensor_type;location;lat;lon;timestamp;P1;durP1;ratioP1;P2;durP2;ratioP2
40527;SDS011;26230;51.268;6.534;2024-02-16T00:00:01;6.7;;;5.1;;
40527;SDS011;26230;51.268;6.534;2024-02-16T00:10:01;6.7;;;5.1;;
40527;SDS011;26230;51.268;6.534;2024-02-16T00:20:01;13.5;;;12.2;;
40527;SDS011;26230;51.268;6.534;2024-02-16T00:30:02;4.0;;;1.9;;
40527;SDS011;26230;51.268;6.534;2024-02-16T00:40:01;4.0;;;1.9;;
40527;SDS011;26230;51.268;6.534;2024-02-16T00:50:01;3.5;;;2.8;;
40527;SDS011;26230;51.268;6.534;2024-02-16T01:00:01;7.3;;;5.2;;
40527;SDS011;26230;51.268;6.534;2024-02-16T01:10:03;7.3;;;5.2;;
40527;SDS011;26230;51.268;6.534;2024-02-16T01:20:01;6.0;;;4.1;;
40527;SDS011;26230;51.268;6.534;2024-02-16T01:30:03;7.7;;;6.1;;
40527;SDS011;26230;51.268;6.534;2024-02-16T01:40:02;7.7;;;6.1;;
40527;SDS011;26230;51.268;6.534;2024-02-16T01:50:02;8.6;;;7.4;;
40527;SDS011;26230;51.268;6.534;2024-02-16T02:00:01;5.1;;;2.9;;
40527;SDS011;26230;51.268;6.534;2024-02-16T02:10:00;5.1;;;2.9;;
40527;SDS011;26230;51.268;6.534;2024-02-16T02:20:02;15.6;;;14.1;;
40527;SDS011;26230;51.268;6.534;2024-02-16T02:30:00;5.4;;;3.6;;
40527;SDS011;26230;51.268;6.534;2024-02-16T02:40:00;5.4;;;3.6;;
40527;SDS011;26230;51.268;6.534;2024-02-16T02:50:00;6.8;;;3.3;;
40527;SDS011;26230;51.268;6.534;2024-02-16T03:00:06;10.3;;;8.0;;
40527;SDS011;26230;51.268;6.534;2024-02-16T03:10:00;10.3;;;8.0;;
40527;SDS011;26230;51.268;6.534;2024-02-16T03:20:00;8.1;;;7.3;;
40527;SDS011;26230;51.268;6.534;2024-02-16T03:30:02;6.2;;;4.4;;
40527;SDS011;26230;51.268;6.534;2024-02-16T03:40:00;6.2;;;4.4;;
40527;SDS011;26230;51.268;6.534;2024-02-16T03:50:00;6.8;;;2.9;;
40527;SDS011;26230;51.268;6.534;2024-02-16T04:00:00;7.2;;;6.4;;
40527;SDS011;26230;51.268;6.534;2024-02-16T04:10:02;7.2;;;6.4;;
40527;SDS011;26230;51.268;6.534;2024-02-16T04:20:00;8.7;;;4.1;;
40527;SDS011;26230;51.268;6.534;2024-02-16T04:30:01;7.0;;;3.6;;
40527;SDS011;26230;51.268;6.534;2024-02-16T04:40:00;7.0;;;3.6;;
40527;SDS011;26230;51.268;6.534;2024-02-16T04:50:01;6.9;;;5.1;;
40527;SDS011;26230;51.268;6.534;2024-02-16T05:00:00;11.2;;;9.5;;
40527;SDS011;26230;51.268;6.534;2024-02-16T05:10:01;11.2;;;9.5;;
40527;SDS011;26230;51.268;6.534;2024-02-16T05:20:09;7.8;;;6.0;;
40527;SDS011;26230;51.268;6.534;2024-02-16T05:30:00;10.0;;;7.0;;
40527;SDS011;26230;51.268;6.534;2024-02-16T05:50:00;5.1;;;2.1;;
40527;SDS011;26230;51.268;6.534;2024-02-16T06:00:04;4.6;;;2.1;;
40527;SDS011;26230;51.268;6.534;2024-02-16T06:10:04;4.6;;;2.1;;
40527;SDS011;26230;51.268;6.534;2024-02-16T06:20:01;20.8;;;18.7;;
40527;SDS011;26230;51.268;6.534;2024-02-16T06:30:02;5.9;;;2.7;;
40527;SDS011;26230;51.268;6.534;2024-02-16T06:40:00;5.9;;;2.7;;
40527;SDS011;26230;51.268;6.534;2024-02-16T06:50:01;4.4;;;2.7;;
40527;SDS011;26230;51.268;6.534;2024-02-16T07:00:02;8.3;;;5.7;;
40527;SDS011;26230;51.268;6.534;2024-02-16T07:10:00;8.3;;;5.7;;
40527;SDS011;26230;51.268;6.534;2024-02-16T07:20:03;5.4;;;2.7;;
40527;SDS011;26230;51.268;6.534;2024-02-16T07:30:04;12.0;;;10.9;;
40527;SDS011;26230;51.268;6.534;2024-02-16T07:40:01;12.0;;;10.9;;
40527;SDS011;26230;51.268;6.534;2024-02-16T07:50:01;9.9;;;6.8;;
40527;SDS011;26230;51.268;6.534;2024-02-16T08:00:00;6.8;;;5.6;;
40527;SDS011;26230;51.268;6.534;2024-02-16T08:10:02;6.8;;;5.6;;
40527;SDS011;26230;51.268;6.534;2024-02-16T08:20:01;6.2;;;2.3;;
40527;SDS011;26230;51.268;6.534;2024-02-16T08:30:02;9.1;;;8.3;;
40527;SDS011;26230;51.268;6.534;2024-02-16T08:40:04;9.1;;;8.3;;
40527;SDS011;26230;51.268;6.534;2024-02-16T08:50:02;6.5;;;2.5;;
40527;SDS011;26230;51.268;6.534;2024-02-16T09:00:03;7.2;;;2.8;;
40527;SDS011;26230;51.268;6.534;2024-02-16T09:10:00;7.2;;;2.8;;
40527;SDS011;26230;51.268;6.534;2024-02-16T09:20:03;8.0;;;3.8;;
40527;SDS011;26230;51.268;6.534;2024-02-16T09:30:00;4.7;;;1.9;;
40527;SDS011;26230;51.268;6.534;2024-02-16T09:40:00;4.7;;;1.9;;
40527;SDS011;26230;51.268;6.534;2024-02-16T09:50:01;8.2;;;5.4;;
40527;SDS011;26230;51.268;6.534;2024-02-16T10:00:00;8.9;;;4.3;;
40527;SDS011;26230;51.268;6.534;2024-02-16T10:10:00;8.9;;;4.3;;
40527;SDS011;26230;51.268;6.534;2024-02-16T10:20:06;11.0;;;4.0;;
40527;SDS011;26230;51.268;6.534;2024-02-16T10:30:01;11.1;;;4.6;;
40527;SDS011;26230;51.268;6.534;2024-02-16T10:40:01;11.1;;;4.6;;
40527;SDS011;26230;51.268;6.534;2024-02-16T10:50:01;8.3;;;2.8;;
40527;SDS011;26230;51.268;6.534;2024-02-16T11:00:09;12.1;;;7.8;;
40527;SDS011;26230;51.268;6.534;2024-02-16T11:10:00;12.1;;;7.8;;
40527;SDS011;26230;51.268;6.534;2024-02-16T11:20:01;8.5;;;3.1;;
40527;SDS011;26230;51.268;6.534;2024-02-16T11:30:02;10.5;;;9.2;;
40527;SDS011;26230;51.268;6.534;2024-02-16T11:40:00;10.5;;;9.2;;
40527;SDS011;26230;51.268;6.534;2024-02-16T11:50:05;13.0;;;5.3;;
40527;SDS011;26230;51.268;6.534;2024-02-16T12:00:08;13.9;;;8.3;;
40527;SDS011;26230;51.268;6.534;2024-02-16T12:10:01;13.9;;;8.3;;
40527;SDS011;26230;51.268;6.534;2024-02-16T12:20:02;16.3;;;10.2;;
40527;SDS011;26230;51.268;6.534;2024-02-16T12:30:00;14.0;;;8.6;;
40527;SDS011;26230;51.268;6.534;2024-02-16T12:40:01;14.0;;;8.6;;
40527;SDS011;26230;51.268;6.534;2024-02-16T12:50:01;12.7;;;5.4;;
40527;SDS011;26230;51.268;6.534;2024-02-16T13:00:00;13.7;;;5.3;;
40527;SDS011;26230;51.268;6.534;2024-02-16T13:10:00;13.7;;;5.3;;
40527;SDS011;26230;51.268;6.534;2024-02-16T13:20:06;8.4;;;4.8;;
40527;SDS011;26230;51.268;6.534;2024-02-16T13:30:00;11.9;;;6.6;;
40527;SDS011;26230;51.268;6.534;2024-02-16T13:40:01;11.9;;;6.6;;
40527;SDS011;26230;51.268;6.534;2024-02-16T13:50:01;25.8;;;23.2;;
40527;SDS011;26230;51.268;6.534;2024-02-16T14:00:00;17.4;;;12.3;;
40527;SDS011;26230;51.268;6.534;2024-02-16T14:10:00;17.4;;;12.3;;
40527;SDS011;26230;51.268;6.534;2024-02-16T14:20:01;14.2;;;8.0;;
40527;SDS011;26230;51.268;6.534;2024-02-16T14:30:00;10.1;;;7.6;;
40527;SDS011;26230;51.268;6.534;2024-02-16T14:40:01;10.1;;;7.6;;
40527;SDS011;26230;51.268;6.534;2024-02-16T14:50:03;15.6;;;14.0;;
40527;SDS011;26230;51.268;6.534;2024-02-16T15:00:03;9.9;;;9.0;;
40527;SDS011;26230;51.268;6.534;2024-02-16T15:10:01;9.9;;;9.0;;
40527;SDS011;26230;51.268;6.534;2024-02-16T15:20:03;7.2;;;6.2;;
40527;SDS011;26230;51.268;6.534;2024-02-16T15:30:03;8.2;;;7.4;;
40527;SDS011;26230;51.268;6.534;2024-02-16T15:40:00;8.2;;;7.4;;
40527;SDS011;26230;51.268;6.534;2024-02-16T15:50:00;9.4;;;8.6;;
40527;SDS011;26230;51.268;6.534;2024-02-16T16:00:02;9.0;;;8.2;;
40527;SDS011;26230;51.268;6.534;2024-02-16T16:10:00;9.0;;;8.2;;
40527;SDS011;26230;51.268;6.534;2024-02-16T16:20:04;9.2;;;8.5;;
40527;SDS011;26230;51.268;6.534;2024-02-16T16:30:01;15.3;;;14.1;;
40527;SDS011;26230;51.268;6.534;2024-02-16T16:40:00;15.3;;;14.1;;
40527;SDS011;26230;51.268;6.534;2024-02-16T16:50:01;7.3;;;5.7;;
40527;SDS011;26230;51.268;6.534;2024-02-16T17:00:02;10.9;;;9.9;;
40527;SDS011;26230;51.268;6.534;2024-02-16T17:10:01;10.9;;;9.9;;
40527;SDS011;26230;51.268;6.534;2024-02-16T17:20:01;10.9;;;9.8;;
40527;SDS011;26230;51.268;6.534;2024-02-16T17:30:04;12.3;;;11.2;;
40527;SDS011;26230;51.268;6.534;2024-02-16T17:40:03;12.3;;;11.2;;
40527;SDS011;26230;51.268;6.534;2024-02-16T17:50:00;19.3;;;17.5;;
40527;SDS011;26230;51.268;6.534;2024-02-16T18:00:01;31.1;;;28.6;;
40527;SDS011;26230;51.268;6.534;2024-02-16T18:10:04;31.1;;;28.6;;
40527;SDS011;26230;51.268;6.534;2024-02-16T18:20:02;16.1;;;14.6;;
40527;SDS011;26230;51.268;6.534;2024-02-16T18:30:01;16.4;;;14.9;;
40527;SDS011;26230;51.268;6.534;2024-02-16T18:40:01;16.4;;;14.9;;
40527;SDS011;26230;51.268;6.534;2024-02-16T18:50:02;14.4;;;13.1;;
40527;SDS011;26230;51.268;6.534;2024-02-16T19:00:03;14.2;;;12.7;;
40527;SDS011;26230;51.268;6.534;2024-02-16T19:10:01;14.2;;;12.7;;
40527;SDS011;26230;51.268;6.534;2024-02-16T19:20:01;17.6;;;15.9;;
40527;SDS011;26230;51.268;6.534;2024-02-16T19:30:01;16.3;;;14.8;;
40527;SDS011;26230;51.268;6.534;2024-02-16T19:40:03;16.3;;;14.8;;
40527;SDS011;26230;51.268;6.534;2024-02-16T19:50:01;13.2;;;11.9;;
40527;SDS011;26230;51.268;6.534;2024-02-16T20:00:01;13.8;;;10.1;;
40527;SDS011;26230;51.268;6.534;2024-02-16T20:20:04;14.6;;;12.4;;
40527;SDS011;26230;51.268;6.534;2024-02-16T20:30:03;9.5;;;8.5;;
40527;SDS011;26230;51.268;6.534;2024-02-16T20:40:01;9.5;;;8.5;;
40527;SDS011;26230;51.268;6.534;2024-02-16T20:50:01;12.2;;;9.8;;
40527;SDS011;26230;51.268;6.534;2024-02-16T21:00:07;20.8;;;19.0;;
40527;SDS011;26230;51.268;6.534;2024-02-16T21:10:00;20.8;;;19.0;;
40527;SDS011;26230;51.268;6.534;2024-02-16T21:20:01;32.7;;;30.4;;
40527;SDS011;26230;51.268;6.534;2024-02-16T21:30:03;17.1;;;15.5;;
40527;SDS011;26230;51.268;6.534;2024-02-16T21:40:00;17.1;;;15.5;;
40527;SDS011;26230;51.268;6.534;2024-02-16T21:50:01;36.8;;;33.9;;
40527;SDS011;26230;51.268;6.534;2024-02-16T22:00:01;12.9;;;10.1;;
40527;SDS011;26230;51.268;6.534;2024-02-16T22:10:01;12.9;;;10.1;;
40527;SDS011;26230;51.268;6.534;2024-02-16T22:20:00;15.0;;;10.1;;
40527;SDS011;26230;51.268;6.534;2024-02-16T22:30:00;21.6;;;19.5;;
40527;SDS011;26230;51.268;6.534;2024-02-16T22:40:00;21.6;;;19.5;;
40527;SDS011;26230;51.268;6.534;2024-02-16T22:50:01;15.6;;;10.8;;
40527;SDS011;26230;51.268;6.534;2024-02-16T23:00:12;18.2;;;10.8;;
40527;SDS011;26230;51.268;6.534;2024-02-16T23:10:01;18.2;;;10.8;;
40527;SDS011;26230;51.268;6.534;2024-02-16T23:20:00;19.9;;;11.2;;
40527;SDS011;26230;51.268;6.534;2024-02-16T23:30:04;15.7;;;11.3;;
40527;SDS011;26230;51.268;6.534;2024-02-16T23:40:04;15.7;;;11.3;;
40527;SDS011;26230;51.268;6.534;2024-02-16T23:50:04;19.8;;;11.5;;
